Time;durP1;ratioP1;P1;durP2;ratioP2;P2;SDS_P1;SDS_P2;PMS_P1;PMS_P2;Temp;Humidity;BMP_temperature;BMP_pressure;BME280_temperature;BME280_humidity;BME280_pressure;Samples;Min_cycle;Max_cycle;Signal;HPM_P1;HPM_P2
2022/09/22 00:01:11;;;;;;;19.70;6.25;;;;;;;18.18;100.00;102324.91;5004118;28;20276;-55
2022/09/22 00:03:42;;;;;;;16.93;6.37;;;;;;;18.25;100.00;102326.78;4998616;28;20035;-55
2022/09/22 00:06:33;;;;;;;15.23;6.30;;;;;;;18.22;100.00;102325.34;5006367;28;20283;-52
2022/09/22 00:09:00;;;;;;;14.68;5.72;;;;;;;18.38;100.00;102321.34;5012767;28;20297;-51
2022/09/22 00:11:28;;;;;;;11.45;6.10;;;;;;;18.41;100.00;102323.63;5004559;28;20025;-54
2022/09/22 00:14:10;;;;;;;13.43;5.33;;;;;;;18.38;100.00;102315.09;4990742;28;20053;-52
2022/09/22 00:16:43;;;;;;;16.23;6.35;;;;;;;18.23;100.00;102323.47;4991396;28;20288;-53
2022/09/22 00:19:12;;;;;;;11.23;5.13;;;;;;;18.28;100.00;102320.97;4998248;28;20066;-55
2022/09/22 00:21:37;;;;;;;14.02;6.15;;;;;;;18.13;100.00;102313.88;5011098;28;20280;-51
2022/09/22 00:24:06;;;;;;;12.73;6.23;;;;;;;18.26;100.00;102320.34;4998684;28;20039;-54
2022/09/22 00:26:33;;;;;;;13.17;5.47;;;;;;;18.34;100.00;102317.41;4987549;28;20121;-56
2022/09/22 00:29:00;;;;;;;14.93;5.72;;;;;;;18.18;100.00;102316.78;4994799;28;20291;-58
2022/09/22 00:31:27;;;;;;;18.40;6.40;;;;;;;18.06;100.00;102315.78;5009049;28;20045;-55
2022/09/22 00:33:53;;;;;;;13.27;5.88;;;;;;;17.96;100.00;102304.50;4998970;28;20057;-52
2022/09/22 00:36:22;;;;;;;11.95;6.32;;;;;;;17.94;100.00;102306.56;5013981;28;20029;-54
2022/09/22 00:38:50;;;;;;;11.27;5.37;;;;;;;18.04;100.00;102307.03;5007799;28;20121;-54
2022/09/22 00:41:33;;;;;;;12.37;6.23;;;;;;;17.90;100.00;102298.88;4991663;28;20292;-53
2022/09/22 00:44:17;;;;;;;14.23;6.20;;;;;;;18.01;100.00;102305.56;4996178;28;20268;-52
2022/09/22 00:46:46;;;;;;;15.38;6.63;;;;;;;17.95;100.00;102303.69;5008959;28;20265;-54
2022/09/22 00:49:14;;;;;;;20.73;6.18;;;;;;;18.16;100.00;102299.09;5006214;28;20094;-52
2022/09/22 00:51:42;;;;;;;8.57;5.40;;;;;;;18.04;100.00;102297.03;5000112;28;20033;-56
2022/09/22 00:54:14;;;;;;;15.90;6.55;;;;;;;17.86;100.00;102294.94;5008305;28;20031;-56
2022/09/22 00:56:55;;;;;;;17.55;6.20;;;;;;;17.84;100.00;102296.19;5005037;28;20038;-52
2022/09/22 00:59:24;;;;;;;15.75;6.22;;;;;;;17.72;100.00;102304.94;4998123;28;20057;-56
2022/09/22 01:01:50;;;;;;;11.18;6.03;;;;;;;17.83;100.00;102289.94;5001530;28;20084;-55
2022/09/22 01:04:16;;;;;;;15.52;6.20;;;;;;;17.85;100.00;102290.56;5008165;28;20041;-56
2022/09/22 01:06:42;;;;;;;16.90;6.97;;;;;;;17.73;100.00;102293.06;5009866;28;20035;-54
2022/09/22 01:09:09;;;;;;;11.95;5.60;;;;;;;17.64;100.00;102288.88;4998541;28;20031;-53
2022/09/22 01:11:38;;;;;;;11.90;6.60;;;;;;;17.55;100.00;102282.88;5007641;28;20047;-54
2022/09/22 01:14:21;;;;;;;11.95;5.70;;;;;;;17.54;100.00;102278.50;4990954;28;20038;-56
2022/09/22 01:17:13;;;;;;;14.98;5.75;;;;;;;17.55;100.00;102285.56;5004863;28;20035;-56
2022/09/22 01:19:57;;;;;;;10.25;6.00;;;;;;;17.62;100.00;102285.56;4997779;28;20034;-54
2022/09/22 01:22:42;;;;;;;16.60;5.53;;;;;;;17.63;100.00;102274.53;4993825;28;20050;-54
2022/09/22 01:25:08;;;;;;;18.40;6.10;;;;;;;17.58;100.00;102277.03;5000169;28;20035;-55
2022/09/22 01:27:45;;;;;;;13.13;6.47;;;;;;;17.58;100.00;102271.63;5013632;28;20292;-56
2022/09/22 01:30:18;;;;;;;11.40;5.88;;;;;;;17.53;100.00;102273.28;4997768;28;20117;-54
2022/09/22 01:33:10;;;;;;;14.25;6.05;;;;;;;17.60;100.00;102269.56;5007677;28;20039;-53
2022/09/22 01:35:54;;;;;;;13.18;6.55;;;;;;;17.55;100.00;102271.22;4994585;28;20071;-54
2022/09/22 01:38:30;;;;;;;14.15;6.15;;;;;;;17.57;100.00;102269.97;4995866;28;20102;-53
2022/09/22 01:41:06;;;;;;;12.50;6.50;;;;;;;17.55;100.00;102265.78;5003094;28;20027;-55
2022/09/22 01:43:49;;;;;;;14.15;6.32;;;;;;;17.50;100.00;102274.53;5006335;28;20057;-55
2022/09/22 01:46:48;;;;;;;9.82;5.28;;;;;;;17.57;100.00;102267.28;5003818;28;20035;-53
2022/09/22 01:49:16;;;;;;;16.95;6.45;;;;;;;17.45;100.00;102266.19;4995204;28;20051;-51
2022/09/22 01:51:48;;;;;;;14.43;5.57;;;;;;;17.40;100.00;102260.59;5004382;28;20138;-51
2022/09/22 01:54:24;;;;;;;17.23;6.03;;;;;;;17.49;100.00;102262.03;5001903;28;20031;-54
2022/09/22 01:56:57;;;;;;;14.77;7.00;;;;;;;17.45;100.00;102260.78;4998148;28;20047;-56
2022/09/22 01:59:27;;;;;;;17.13;6.18;;;;;;;17.38;100.00;102254.56;4990042;28;20030;-55
2022/09/22 02:02:00;;;;;;;11.48;7.60;;;;;;;17.45;100.00;102256.22;5008961;28;20038;-56
2022/09/22 02:04:46;;;;;;;11.80;5.57;;;;;;;17.39;100.00;102253.53;5009383;28;20038;-55
2022/09/22 02:07:19;;;;;;;12.57;6.65;;;;;;;17.38;100.00;102251.84;5001187;28;20046;-56
2022/09/22 02:09:47;;;;;;;14.35;6.25;;;;;;;17.36;100.00;102243.94;4989412;28;20023;-55
2022/09/22 02:12:15;;;;;;;18.02;6.70;;;;;;;17.33;100.00;102234.38;4999922;28;20031;-56
2022/09/22 02:14:41;;;;;;;11.63;6.68;;;;;;;17.26;100.00;102241.63;5003672;28;20038;-54
2022/09/22 02:17:07;;;;;;;11.00;6.55;;;;;;;17.24;100.00;102226.69;5002455;28;20048;-55
2022/09/22 02:19:36;;;;;;;14.70;6.50;;;;;;;17.12;100.00;102223.75;4987991;28;20039;-54
2022/09/22 02:22:03;;;;;;;10.43;6.25;;;;;;;17.15;100.00;102236.84;4993503;28;20073;-54
2022/09/22 02:24:41;;;;;;;11.90;6.22;;;;;;;17.17;100.00;102229.38;5007912;28;20069;-55
2022/09/22 02:27:15;;;;;;;10.98;6.00;;;;;;;17.08;100.00;102225.22;5004769;28;20063;-52
2022/09/22 02:29:46;;;;;;;11.60;6.63;;;;;;;17.07;100.00;102221.66;4996911;28;20045;-55
2022/09/22 02:32:15;;;;;;;18.65;7.03;;;;;;;17.18;100.00;102215.66;5008373;28;20078;-55
2022/09/22 02:34:42;;;;;;;13.60;6.00;;;;;;;17.14;100.00;102221.66;5006133;28;20045;-54
2022/09/22 02:37:19;;;;;;;11.98;6.28;;;;;;;17.08;100.00;102217.09;5005370;28;20054;-54
2022/09/22 02:40:12;;;;;;;13.88;6.13;;;;;;;17.05;100.00;102213.75;4995173;28;20055;-54
2022/09/22 02:42:46;;;;;;;17.00;6.43;;;;;;;17.00;100.00;102210.81;5001155;28;20134;-54
2022/09/22 02:45:18;;;;;;;14.52;7.43;;;;;;;17.03;100.00;102215.81;4989897;28;20038;-56
2022/09/22 02:47:56;;;;;;;10.15;6.53;;;;;;;16.97;100.00;102210.41;4992539;28;20035;-53
2022/09/22 02:50:25;;;;;;;13.98;6.30;;;;;;;17.08;100.00;102209.00;5012342;28;20049;-56
2022/09/22 02:52:52;;;;;;;12.95;6.93;;;;;;;17.03;100.00;102207.72;5010909;28;20061;-53
2022/09/22 02:55:18;;;;;;;11.88;6.43;;;;;;;17.07;100.00;102213.53;5000050;28;20039;-56
2022/09/22 02:57:43;;;;;;;11.33;6.17;;;;;;;16.91;100.00;102206.63;4992637;28;20069;-52
2022/09/22 03:00:10;;;;;;;12.90;6.70;;;;;;;16.86;100.00;102214.53;4991156;28;20031;-50
2022/09/22 03:02:35;;;;;;;9.32;5.80;;;;;;;16.84;100.00;102213.88;5012674;28;20046;-50
2022/09/22 03:05:02;;;;;;;13.40;6.23;;;;;;;16.88;100.00;102207.03;5002678;28;20042;-53
2022/09/22 03:07:27;;;;;;;10.73;5.90;;;;;;;16.81;100.00;102201.63;4991795;28;20026;-56
2022/09/22 03:09:53;;;;;;;12.97;6.37;;;;;;;16.81;100.00;102204.31;5023015;28;20065;-58
2022/09/22 03:12:18;;;;;;;12.93;6.67;;;;;;;16.70;100.00;102200.34;4995665;28;20326;-53
2022/09/22 03:14:44;;;;;;;10.20;5.60;;;;;;;16.72;100.00;102203.66;5000870;28;20035;-52
2022/09/22 03:17:09;;;;;;;19.23;8.20;;;;;;;16.66;100.00;102193.69;5010658;28;20126;-53
2022/09/22 03:19:35;;;;;;;11.33;5.90;;;;;;;16.68;100.00;102204.28;4992232;28;20065;-52
2022/09/22 03:22:01;;;;;;;11.40;6.40;;;;;;;16.68;100.00;102196.16;4990033;28;20280;-55
2022/09/22 03:24:26;;;;;;;16.67;7.47;;;;;;;16.66;100.00;102199.09;5004558;28;20043;-51
2022/09/22 03:26:52;;;;;;;11.23;7.10;;;;;;;16.66;100.00;102199.09;5009333;28;20046;-55
2022/09/22 03:29:17;;;;;;;15.07;7.70;;;;;;;16.66;100.00;102188.28;5005075;28;20039;-51
2022/09/22 03:31:43;;;;;;;13.60;7.60;;;;;;;16.65;100.00;102191.19;5022682;28;20141;-54
2022/09/22 03:34:08;;;;;;;18.63;7.70;;;;;;;16.62;100.00;102185.16;5000493;28;20289;-54
2022/09/22 03:36:34;;;;;;;15.10;7.20;;;;;;;16.60;100.00;102187.22;4990660;28;20057;-52
2022/09/22 03:39:00;;;;;;;14.48;7.32;;;;;;;16.51;100.00;102191.16;4991966;28;20045;-55
2022/09/22 03:41:25;;;;;;;14.60;7.10;;;;;;;16.57;100.00;102187.63;4992051;28;20056;-52
2022/09/22 03:43:51;;;;;;;13.23;6.87;;;;;;;16.51;100.00;102187.59;5001728;28;20048;-54
2022/09/22 03:46:16;;;;;;;18.57;7.63;;;;;;;16.52;100.00;102189.25;5001775;28;20042;-51
2022/09/22 03:48:42;;;;;;;12.77;7.47;;;;;;;16.57;100.00;102187.63;4991495;28;20281;-55
2022/09/22 03:51:07;;;;;;;15.55;6.88;;;;;;;16.59;100.00;102190.97;4988627;28;20030;-56
2022/09/22 03:53:34;;;;;;;18.57;7.37;;;;;;;16.71;100.00;102191.19;5000919;28;20086;-53
2022/09/22 03:56:08;;;;;;;16.73;8.50;;;;;;;16.55;100.00;102186.16;4984964;28;20039;-54
2022/09/22 03:58:34;;;;;;;14.68;7.45;;;;;;;16.46;100.00;102189.03;4999976;28;20087;-52
2022/09/22 04:00:59;;;;;;;16.37;7.60;;;;;;;16.47;100.00;102190.72;5001736;28;20050;-52
2022/09/22 04:03:25;;;;;;;16.08;7.15;;;;;;;16.44;100.00;102192.97;5004609;28;20035;-55
2022/09/22 04:05:52;;;;;;;16.60;8.15;;;;;;;16.55;100.00;102186.16;4991434;28;20085;-54
2022/09/22 04:08:18;;;;;;;14.02;8.18;;;;;;;16.53;100.00;102183.69;5001386;28;20058;-56
2022/09/22 04:10:44;;;;;;;21.73;8.87;;;;;;;16.49;100.00;102177.84;5008718;28;20098;-55
2022/09/22 04:13:11;;;;;;;16.20;8.10;;;;;;;16.48;100.00;102178.88;4993037;28;20030;-56
2022/09/22 04:15:37;;;;;;;14.23;7.10;;;;;;;16.43;100.00;102173.25;5001146;28;20039;-53
2022/09/22 04:18:03;;;;;;;17.45;8.25;;;;;;;16.43;100.00;102167.84;4991859;28;20042;-54
2022/09/22 04:20:29;;;;;;;11.98;7.53;;;;;;;16.97;100.00;102167.97;5004624;28;20043;-54
2022/09/22 04:22:55;;;;;;;13.13;7.50;;;;;;;16.51;100.00;102164.16;4994916;28;20048;-53
2022/09/22 04:25:21;;;;;;;13.52;8.45;;;;;;;16.38;100.00;102164.09;5022877;28;20054;-52
2022/09/22 04:27:46;;;;;;;14.13;7.82;;;;;;;16.33;100.00;102167.38;5005142;28;20042;-52
2022/09/22 04:30:12;;;;;;;13.73;8.47;;;;;;;16.26;100.00;102169.22;5004960;28;20061;-54
2022/09/22 04:32:38;;;;;;;91.43;40.22;;;;;;;16.37;100.00;102157.84;4995473;28;20247;-52
2022/09/22 04:35:05;;;;;;;53.38;25.10;;;;;;;16.53;100.00;102172.03;5002297;28;20038;-53
2022/09/22 04:37:31;;;;;;;46.47;21.05;;;;;;;16.59;100.00;102163.94;5006067;28;20035;-53
2022/09/22 04:39:56;;;;;;;42.20;19.87;;;;;;;16.68;100.00;102163.75;4999119;28;20126;-54
2022/09/22 04:42:22;;;;;;;20.13;11.75;;;;;;;16.82;100.00;102159.22;5002863;28;20035;-51
2022/09/22 04:44:48;;;;;;;22.10;11.20;;;;;;;16.92;100.00;102162.38;4989655;28;20043;-53
2022/09/22 04:47:13;;;;;;;19.90;10.83;;;;;;;16.94;100.00;102165.69;5016171;28;20034;-53
2022/09/22 04:49:39;;;;;;;55.28;23.95;;;;;;;17.00;100.00;102161.38;5004709;28;20049;-55
2022/09/22 04:52:04;;;;;;;36.73;17.17;;;;;;;16.95;100.00;102166.50;4999214;28;20045;-56
2022/09/22 04:54:30;;;;;;;22.20;11.03;;;;;;;16.90;100.00;102167.97;4994686;28;20035;-55
2022/09/22 04:56:55;;;;;;;19.37;11.27;;;;;;;16.95;100.00;102163.81;4980333;28;20285;-57
2022/09/22 04:59:21;;;;;;;27.77;15.43;;;;;;;16.99;100.00;102159.72;4990039;28;20051;-57
2022/09/22 05:01:47;;;;;;;37.58;16.73;;;;;;;17.02;100.00;102162.00;4970778;28;20062;-53
2022/09/22 05:04:13;;;;;;;27.33;12.03;;;;;;;16.67;100.00;102168.34;4977676;28;20039;-57
2022/09/22 05:06:38;;;;;;;43.28;20.60;;;;;;;16.85;100.00;102175.03;4982565;28;20038;-56
2022/09/22 05:09:04;;;;;;;23.00;12.20;;;;;;;16.88;100.00;102167.34;4982346;28;20069;-56
2022/09/22 05:11:30;;;;;;;14.82;7.75;;;;;;;16.84;100.00;102170.63;4970460;28;20050;-52
2022/09/22 05:13:57;;;;;;;15.90;6.65;;;;;;;16.67;100.00;102179.16;4986510;28;20057;-52
2022/09/22 05:16:24;;;;;;;11.75;7.30;;;;;;;16.50;100.00;102173.28;4969524;28;20031;-52
2022/09/22 05:18:50;;;;;;;12.95;7.05;;;;;;;16.50;100.00;102181.38;5003769;28;20041;-57
2022/09/22 05:21:20;;;;;;;13.60;7.35;;;;;;;16.23;100.00;102178.56;4984401;28;20043;-55
2022/09/22 05:23:46;;;;;;;12.05;7.03;;;;;;;16.45;100.00;102181.13;4995132;28;20051;-53
2022/09/22 05:26:12;;;;;;;16.07;7.13;;;;;;;16.41;100.00;102172.63;4973462;28;20111;-54
2022/09/22 05:28:38;;;;;;;20.52;7.40;;;;;;;16.06;100.00;102172.66;4963334;28;20043;-55
2022/09/22 05:31:04;;;;;;;12.53;8.13;;;;;;;16.02;100.00;102176.78;4978966;28;20066;-52
2022/09/22 05:33:30;;;;;;;10.60;7.40;;;;;;;15.97;100.00;102174.69;4991976;28;20273;-55
2022/09/22 05:35:55;;;;;;;17.27;8.75;;;;;;;15.99;100.00;102177.19;4974667;28;20054;-52
2022/09/22 05:38:20;;;;;;;15.13;7.93;;;;;;;15.96;100.00;102181.13;4977992;28;20058;-52
2022/09/22 05:40:46;;;;;;;12.60;7.43;;;;;;;15.96;100.00;102186.50;4981192;28;20054;-56
2022/09/22 05:43:12;;;;;;;12.70;7.45;;;;;;;16.01;100.00;102175.94;4987505;28;20137;-54
2022/09/22 05:45:38;;;;;;;20.02;8.10;;;;;;;16.04;100.00;102183.69;4977576;28;20045;-54
2022/09/22 05:48:04;;;;;;;13.45;7.45;;;;;;;16.05;100.00;102181.78;4996143;28;20099;-55
2022/09/22 05:50:30;;;;;;;16.88;8.60;;;;;;;15.99;100.00;102177.19;4998806;28;20031;-52
2022/09/22 05:53:04;;;;;;;15.57;9.37;;;;;;;15.99;100.00;102179.91;4988774;28;20062;-53
2022/09/22 05:55:30;;;;;;;15.27;9.07;;;;;;;15.99;100.00;102179.91;4995959;28;20269;-53
2022/09/22 05:57:57;;;;;;;14.35;8.70;;;;;;;16.02;100.00;102177.63;5001453;28;20058;-56
2022/09/22 06:00:22;;;;;;;16.10;8.57;;;;;;;16.01;100.00;102183.22;5008102;28;20030;-55
2022/09/22 06:02:48;;;;;;;19.20;9.70;;;;;;;16.02;100.00;102183.00;5008985;28;20069;-54
2022/09/22 06:05:13;;;;;;;20.77;8.80;;;;;;;15.99;100.00;102177.19;5000440;28;20042;-52
2022/09/22 06:07:38;;;;;;;21.00;10.00;;;;;;;15.81;100.00;102177.69;4994402;28;20034;-57
2022/09/22 06:10:05;;;;;;;19.05;9.35;;;;;;;15.81;100.00;102185.78;5006284;28;20039;-55
2022/09/22 06:12:31;;;;;;;16.08;9.80;;;;;;;15.95;100.00;102184.84;4997364;28;20039;-52
2022/09/22 06:14:56;;;;;;;21.53;10.20;;;;;;;15.91;100.00;102188.97;5010737;28;20058;-52
2022/09/22 06:17:22;;;;;;;18.10;9.13;;;;;;;16.00;100.00;102184.25;4987259;28;20039;-54
2022/09/22 06:19:49;;;;;;;20.77;9.63;;;;;;;15.90;100.00;102185.44;4994203;28;20035;-50
2022/09/22 06:22:15;;;;;;;17.50;10.13;;;;;;;16.05;100.00;102188.03;5003774;28;20032;-54
2022/09/22 06:24:42;;;;;;;19.75;9.82;;;;;;;16.22;100.00;102193.09;4997802;28;20057;-51
2022/09/22 06:27:08;;;;;;;24.08;9.90;;;;;;;16.42;100.00;102190.50;5012443;28;20034;-54
2022/09/22 06:29:34;;;;;;;17.88;10.00;;;;;;;16.50;100.00;102176.00;4989904;28;20075;-57
2022/09/22 06:32:00;;;;;;;19.65;9.68;;;;;;;16.43;100.00;102173.25;4989350;28;20042;-53
2022/09/22 06:34:26;;;;;;;19.45;10.63;;;;;;;16.49;100.00;102169.75;5008521;28;20104;-54
2022/09/22 06:36:53;;;;;;;20.02;10.15;;;;;;;16.49;100.00;102171.59;4992073;28;20038;-53
2022/09/22 06:39:19;;;;;;;17.92;9.65;;;;;;;17.24;100.00;102172.63;5005033;28;20042;-54
2022/09/22 06:41:45;;;;;;;20.00;9.88;;;;;;;16.16;100.00;102177.69;4990529;28;20090;-54
2022/09/22 06:44:11;;;;;;;18.30;9.80;;;;;;;16.41;100.00;102174.47;4990227;28;20031;-52
2022/09/22 06:46:37;;;;;;;16.23;10.80;;;;;;;16.38;100.00;102181.13;5000410;28;20035;-55
2022/09/22 06:49:03;;;;;;;;;;;;;;;16.47;100.00;102170.97;5000355;28;20046;-54
2022/09/22 06:51:34;;;;;;;20.67;11.13;;;;;;;16.39;100.00;102182.81;5004200;28;19982;-54
2022/09/22 06:54:03;;;;;;;16.55;10.65;;;;;;;16.67;100.00;102173.75;5002172;28;20046;-52
2022/09/22 06:56:33;;;;;;;16.45;11.02;;;;;;;16.48;100.00;102186.97;5000231;28;20049;-52
2022/09/22 06:58:59;;;;;;;21.08;11.48;;;;;;;16.63;100.00;102186.81;5001774;28;20064;-52
2022/09/22 07:01:27;;;;;;;22.27;12.07;;;;;;;16.72;100.00;102182.06;4992692;28;20045;-53
2022/09/22 07:03:53;;;;;;;19.33;10.73;;;;;;;16.48;100.00;102181.56;5008445;28;20039;-56
2022/09/22 07:06:18;;;;;;;18.92;10.85;;;;;;;16.20;100.00;102179.81;4996680;28;20026;-51
2022/09/22 07:08:45;;;;;;;22.27;12.13;;;;;;;16.14;100.00;102194.06;5005749;28;20064;-51
2022/09/22 07:11:12;;;;;;;22.98;11.80;;;;;;;16.19;100.00;102197.03;4990089;28;20034;-55
2022/09/22 07:13:40;;;;;;;19.15;11.10;;;;;;;16.14;100.00;102182.47;5001470;28;20026;-54
2022/09/22 07:16:07;;;;;;;17.83;10.57;;;;;;;16.42;100.00;102193.19;4984589;28;20035;-54
2022/09/22 07:18:34;;;;;;;18.33;10.93;;;;;;;16.50;100.00;102184.09;4999146;28;20273;-55
2022/09/22 07:21:05;;;;;;;16.97;11.03;;;;;;;16.56;100.00;102183.28;5007778;28;20269;-55
2022/09/22 07:23:34;;;;;;;22.55;11.32;;;;;;;16.08;100.00;102186.78;4999790;28;20273;-54
2022/09/22 07:26:03;;;;;;;19.33;10.90;;;;;;;16.31;100.00;102185.66;4982613;28;20038;-53
2022/09/22 07:28:31;;;;;;;20.33;11.63;;;;;;;16.60;100.00;102184.53;5001266;28;20312;-55
2022/09/22 07:31:04;;;;;;;23.60;12.00;;;;;;;16.55;100.00;102176.19;5015575;28;20365;-55
2022/09/22 07:33:37;;;;;;;18.80;12.17;;;;;;;16.51;100.00;102177.66;4996230;28;20304;-54
2022/09/22 07:36:07;;;;;;;26.00;12.87;;;;;;;16.86;100.00;102176.69;4997848;28;20315;-55
2022/09/22 07:38:38;;;;;;;21.87;12.23;;;;;;;16.84;100.00;102174.19;5001164;28;20270;-52
2022/09/22 07:41:13;;;;;;;21.23;12.53;;;;;;;17.10;100.00;102172.59;4994093;28;20266;-54
2022/09/22 07:43:40;;;;;;;21.47;11.60;;;;;;;17.22;100.00;102175.50;5002631;28;20272;-55
2022/09/22 07:46:06;;;;;;;23.07;12.83;;;;;;;17.54;100.00;102177.59;5006928;28;20260;-54
2022/09/22 07:48:36;;;;;;;21.10;12.63;;;;;;;17.49;100.00;102178.19;5015816;28;20310;-51
2022/09/22 07:51:11;;;;;;;21.50;12.90;;;;;;;17.76;100.00;102186.28;5010303;28;20325;-49
2022/09/22 07:53:38;;;;;;;19.97;12.07;;;;;;;18.13;100.00;102175.81;4990889;28;20273;-54
2022/09/22 07:56:12;;;;;;;22.17;12.17;;;;;;;17.83;100.00;102176.28;5003895;28;20292;-51
2022/09/22 07:58:46;;;;;;;27.70;11.93;;;;;;;18.26;100.00;102182.25;4992961;28;20257;-55
2022/09/22 08:01:12;;;;;;;24.43;12.63;;;;;;;18.33;100.00;102175.72;4992719;28;20308;-51
2022/09/22 08:03:38;;;;;;;26.65;12.23;;;;;;;18.62;100.00;102173.53;4991177;28;20277;-55
2022/09/22 08:06:11;;;;;;;18.80;11.90;;;;;;;18.89;100.00;102169.81;4993596;28;20031;-56
2022/09/22 08:08:41;;;;;;;21.70;12.33;;;;;;;19.06;100.00;102178.28;4987669;28;20284;-55
2022/09/22 08:11:13;;;;;;;19.17;12.07;;;;;;;19.12;100.00;102165.72;5004633;28;20277;-54
2022/09/22 08:13:47;;;;;;;25.03;12.37;;;;;;;19.12;100.00;102165.72;4994913;28;20314;-55
2022/09/22 08:16:14;;;;;;;23.63;12.33;;;;;;;18.61;100.00;102171.88;4986729;28;20289;-55
2022/09/22 08:18:40;;;;;;;21.93;11.53;;;;;;;18.74;100.00;102170.97;5007605;28;20301;-57
2022/09/22 08:21:06;;;;;;;16.87;11.47;;;;;;;18.94;100.00;102169.16;4997419;28;20281;-55
2022/09/22 08:23:32;;;;;;;20.25;12.25;;;;;;;19.18;100.00;102175.69;4991212;28;20261;-55
2022/09/22 08:26:04;;;;;;;19.95;11.23;;;;;;;19.31;100.00;102172.84;4994914;28;20034;-54
2022/09/22 08:28:30;;;;;;;18.60;11.27;;;;;;;19.58;100.00;102167.19;4999686;28;20042;-55
2022/09/22 08:30:57;;;;;;;21.58;10.25;;;;;;;19.76;100.00;102170.97;4989419;28;20273;-53
2022/09/22 08:33:25;;;;;;;22.60;10.00;;;;;;;19.88;100.00;102168.34;4991162;28;20034;-58
2022/09/22 08:35:58;;;;;;;19.60;11.10;;;;;;;20.09;100.00;102168.97;4989160;28;20288;-56
2022/09/22 08:38:26;;;;;;;22.33;11.07;;;;;;;20.29;100.00;102166.84;4996236;28;20274;-56
2022/09/22 08:41:23;;;;;;;23.03;10.57;;;;;;;20.65;100.00;102164.28;4996111;28;20271;-59
2022/09/22 08:43:54;;;;;;;18.27;10.03;;;;;;;21.15;100.00;102165.00;4964991;28;20308;-57
2022/09/22 08:46:32;;;;;;;15.03;9.83;;;;;;;21.65;100.00;102165.63;5013691;28;20268;-55
2022/09/22 08:52:03;;;;;;;20.20;9.43;;;;;;;22.40;100.00;102172.09;4995142;28;20386;-54
2022/09/22 08:54:30;;;;;;;17.97;8.20;;;;;;;23.00;98.92;102171.81;4989226;28;20098;-57
2022/09/22 08:57:09;;;;;;;;;;;;;;;23.30;94.02;102174.25;4998723;28;20044;-57
2022/09/22 08:59:47;;;;;;;14.10;7.87;;;;;;;24.18;88.01;102172.72;4996511;28;19985;-55
2022/09/22 09:02:53;;;;;;;15.53;7.90;;;;;;;24.78;82.21;102177.44;4996941;28;20058;-55
2022/09/22 09:05:41;;;;;;;13.73;7.87;;;;;;;25.71;77.41;102188.28;4961982;28;20069;-57
2022/09/22 09:08:41;;;;;;;13.53;7.63;;;;;;;26.10;71.64;102181.59;5000379;28;20054;-57
2022/09/22 09:11:33;;;;;;;19.90;7.87;;;;;;;26.82;66.24;102189.19;5000885;28;20039;-58
2022/09/22 09:14:17;;;;;;;15.77;7.23;;;;;;;27.17;63.71;102191.13;4996926;28;20055;-55
2022/09/22 09:16:57;;;;;;;14.33;6.73;;;;;;;27.90;60.46;102194.53;5008227;28;20035;-57
2022/09/22 09:19:42;;;;;;;13.87;6.33;;;;;;;28.48;58.74;102197.84;5001194;28;20031;-56
2022/09/22 09:22:21;;;;;;;15.20;6.97;;;;;;;28.63;56.99;102194.22;5008082;28;20038;-55
2022/09/22 09:25:04;;;;;;;9.93;5.63;;;;;;;28.89;53.42;102194.03;5002397;28;20098;-57
2022/09/22 09:27:37;;;;;;;9.53;5.43;;;;;;;29.63;51.95;102184.78;4981139;28;20057;-54
2022/09/22 09:30:20;;;;;;;14.57;6.90;;;;;;;29.32;51.00;102198.88;4988307;28;20042;-58
2022/09/22 09:32:58;;;;;;;16.02;6.43;;;;;;;30.12;48.76;102190.28;5017939;28;20027;-54
2022/09/22 09:35:43;;;;;;;11.80;6.20;;;;;;;28.97;48.41;102198.09;5032055;28;20096;-58
2022/09/22 09:38:16;;;;;;;11.75;5.90;;;;;;;29.96;48.80;102184.94;4995859;28;20031;-56
2022/09/22 09:40:53;;;;;;;16.52;6.30;;;;;;;30.01;45.45;102200.63;4991434;28;20011;-58
2022/09/22 09:43:21;;;;;;;9.48;6.13;;;;;;;29.80;46.34;102200.03;5001599;28;20034;-57
2022/09/22 09:46:25;;;;;;;12.07;6.88;;;;;;;30.50;45.46;102190.28;4994326;28;20053;-58
2022/09/22 09:49:05;;;;;;;10.20;6.53;;;;;;;31.48;44.09;102193.34;4991520;28;20062;-57
2022/09/22 09:51:37;;;;;;;12.75;6.88;;;;;;;30.93;45.67;102194.88;4990706;28;20124;-55
2022/09/22 09:54:08;;;;;;;10.50;6.03;;;;;;;30.09;44.49;102190.88;4989967;28;20045;-56
2022/09/22 09:56:37;;;;;;;12.07;6.75;;;;;;;30.87;44.19;102196.06;4992830;28;20031;-58
2022/09/22 10:01:53;;;;;;;10.77;5.88;;;;;;;31.19;41.33;102197.19;4991720;28;20061;-62
2022/09/22 10:04:32;;;;;;;11.88;6.63;;;;;;;31.14;42.05;102192.56;4995525;28;20034;-57
2022/09/22 10:07:11;;;;;;;12.25;6.03;;;;;;;32.00;40.59;102195.09;4998939;28;20041;-56
2022/09/22 10:09:37;;;;;;;13.13;5.45;;;;;;;31.10;40.38;102193.47;5000964;28;20444;-56
2022/09/22 10:12:04;;;;;;;11.50;6.15;;;;;;;31.72;39.87;102192.34;5001677;28;20025;-57
2022/09/22 10:14:33;;;;;;;9.50;4.80;;;;;;;31.31;39.44;102193.97;5002595;28;20031;-58
2022/09/22 10:17:00;;;;;;;8.00;4.38;;;;;;;32.22;37.70;102190.75;5000467;28;20031;-56
2022/09/22 10:19:30;;;;;;;11.00;5.07;;;;;;;32.85;37.17;102199.25;5002562;28;20073;-57
2022/09/22 10:22:21;;;;;;;10.25;4.90;;;;;;;32.24;37.36;102188.47;5007878;28;20036;-57
2022/09/22 10:25:01;;;;;;;10.80;4.65;;;;;;;31.74;37.62;102182.63;5000505;28;20026;-59
2022/09/22 10:27:29;;;;;;;9.55;4.90;;;;;;;32.56;36.17;102179.16;4988630;28;20027;-58
2022/09/22 10:30:20;;;;;;;9.93;4.20;;;;;;;33.51;34.69;102184.78;4996229;28;20098;-57
2022/09/22 10:33:04;;;;;;;12.80;4.40;;;;;;;34.14;33.76;102176.31;5024264;28;20088;-56
2022/09/22 10:35:32;;;;;;;4.65;3.17;;;;;;;33.18;32.71;102177.63;5014016;28;20046;-55
2022/09/22 10:38:12;;;;;;;4.82;2.97;;;;;;;34.26;30.73;102170.09;5034917;28;20045;-58
2022/09/22 10:40:40;;;;;;;5.70;3.50;;;;;;;34.30;30.97;102162.75;5005989;28;20033;-58
2022/09/22 10:43:30;;;;;;;6.25;4.15;;;;;;;34.10;30.84;102168.94;5000086;28;20030;-58
2022/09/22 10:46:34;;;;;;;5.63;3.67;;;;;;;33.36;32.05;102165.78;5004684;28;20035;-57
2022/09/22 10:49:16;;;;;;;7.32;4.22;;;;;;;33.33;31.90;102165.28;4981069;28;20046;-58
2022/09/22 10:52:00;;;;;;;5.35;3.55;;;;;;;35.21;30.58;102163.88;4987587;28;20110;-57
2022/09/22 10:54:41;;;;;;;6.13;3.60;;;;;;;34.43;30.69;102160.94;4991400;28;20054;-58
2022/09/22 10:57:26;;;;;;;6.07;4.07;;;;;;;34.50;31.38;102156.88;5003127;28;20144;-57
2022/09/22 10:59:57;;;;;;;8.05;4.82;;;;;;;34.96;29.94;102151.72;4991368;28;20038;-58
2022/09/22 11:02:39;;;;;;;12.73;4.38;;;;;;;34.86;30.56;102152.88;4995846;28;20034;-59
2022/09/22 11:05:14;;;;;;;5.95;4.05;;;;;;;34.90;30.42;102148.28;4998353;28;20094;-58
2022/09/22 11:14:02;;;;;;;5.43;3.33;;;;;;;36.60;27.92;102154.09;4996203;28;20035;-60
2022/09/22 11:16:36;;;;;;;5.22;3.90;;;;;;;36.09;27.72;102146.69;4996435;28;20043;-58
2022/09/22 11:19:36;;;;;;;5.25;3.38;;;;;;;35.66;26.67;102151.41;4990914;28;20035;-60
2022/09/22 11:22:38;;;;;;;7.68;3.40;;;;;;;35.98;27.57;102146.25;5004356;28;20078;-58
2022/09/22 11:25:38;;;;;;;4.43;2.17;;;;;;;35.16;26.13;102137.06;4991986;28;20041;-58
2022/09/22 11:28:03;;;;;;;4.88;2.80;;;;;;;35.14;27.20;102139.38;4989735;28;20038;-60
2022/09/22 11:30:51;;;;;;;4.00;2.38;;;;;;;34.89;27.55;102130.78;4992839;28;20035;-58
2022/09/22 11:33:35;;;;;;;5.30;3.17;;;;;;;35.68;26.98;102137.16;4993726;28;20038;-56
2022/09/22 11:36:10;;;;;;;5.70;2.38;;;;;;;36.50;26.30;102137.81;4990570;28;20035;-59
2022/09/22 11:39:06;;;;;;;3.55;2.20;;;;;;;36.45;25.91;102136.88;4997945;28;20031;-58
2022/09/22 11:41:38;;;;;;;3.50;2.65;;;;;;;37.21;25.32;102133.09;4986650;28;20050;-58